Time;durP1;ratioP1;P1;durP2;ratioP2;P2;SDS_P1;SDS_P2;PMS_P1;PMS_P2;Temp;Humidity;BMP_temperature;BMP_pressure;BME280_temperature;BME280_humidity;BME280_pressure;Samples;Min_cycle;Max_cycle;Signal;HPM_P1;HPM_P2
2024/01/07 00:01:00;;;;;;;0.80;0.80;;;;;;;7.14;100.00;99629.28;4973718;28;20035;-68
2024/01/07 00:03:26;;;;;;;0.80;0.80;;;;;;;7.17;100.00;99626.56;4953396;28;20077;-68
2024/01/07 00:05:51;;;;;;;0.80;0.80;;;;;;;7.18;100.00;99632.75;4996048;28;20072;-68
2024/01/07 00:08:16;;;;;;;0.90;0.90;;;;;;;7.19;100.00;99632.69;5010359;28;20022;-68
2024/01/07 00:10:42;;;;;;;0.80;0.80;;;;;;;7.18;100.00;99627.44;5010618;28;20132;-69
2024/01/07 00:13:07;;;;;;;0.90;0.90;;;;;;;7.14;100.00;99636.34;5004577;28;20434;-68
2024/01/07 00:15:33;;;;;;;0.60;0.60;;;;;;;7.07;100.00;99634.78;4971405;28;20027;-69
2024/01/07 00:17:58;;;;;;;0.80;0.80;;;;;;;7.00;100.00;99628.75;4971199;28;20061;-70
2024/01/07 00:20:24;;;;;;;0.80;0.80;;;;;;;7.04;100.00;99630.44;4974065;28;20118;-69
2024/01/07 00:22:49;;;;;;;0.73;0.73;;;;;;;7.03;100.00;99627.81;4970882;28;20101;-69
2024/01/07 00:25:14;;;;;;;0.90;0.90;;;;;;;7.00;100.00;99634.03;4970606;28;20394;-68
2024/01/07 00:27:40;;;;;;;0.70;0.70;;;;;;;7.03;100.00;99633.09;4984088;28;20034;-68
2024/01/07 00:30:06;;;;;;;0.90;0.90;;;;;;;7.05;100.00;99628.66;4972060;28;20018;-68
2024/01/07 00:32:31;;;;;;;0.73;0.73;;;;;;;7.03;100.00;99620.75;4969861;28;20498;-68
2024/01/07 00:34:57;;;;;;;0.70;0.70;;;;;;;7.07;100.00;99633.00;4969009;28;20035;-68
2024/01/07 00:37:22;;;;;;;1.00;1.00;;;;;;;7.09;100.00;99638.22;4971038;28;20026;-68
2024/01/07 00:39:47;;;;;;;0.88;0.88;;;;;;;7.12;100.00;99638.16;4969341;28;20101;-68
2024/01/07 00:42:13;;;;;;;0.70;0.70;;;;;;;7.11;100.00;99637.31;4969722;28;20442;-68
2024/01/07 00:44:38;;;;;;;0.90;0.90;;;;;;;7.11;100.00;99637.31;4986418;28;20022;-68
2024/01/07 00:47:04;;;;;;;0.80;0.80;;;;;;;7.16;100.00;99634.53;4954994;28;20034;-68
2024/01/07 00:49:30;;;;;;;0.82;0.82;;;;;;;7.17;100.00;99641.56;4985634;28;20037;-69
2024/01/07 00:51:55;;;;;;;0.80;0.80;;;;;;;7.20;100.00;99637.06;4989823;28;20026;-69
2024/01/07 00:54:21;;;;;;;0.80;0.80;;;;;;;6.98;100.00;99608.56;4987631;28;20025;-69
2024/01/07 00:56:46;;;;;;;0.70;0.70;;;;;;;7.16;100.00;99643.34;4988183;28;20053;-69
2024/01/07 00:59:12;;;;;;;0.90;0.90;;;;;;;7.16;100.00;99640.72;4988876;28;20026;-69
2024/01/07 01:01:37;;;;;;;0.73;0.73;;;;;;;7.14;100.00;99644.28;4972193;28;20030;-69
2024/01/07 01:04:03;;;;;;;0.70;0.70;;;;;;;7.14;100.00;99642.50;5000398;28;20417;-68
2024/01/07 01:06:28;;;;;;;0.80;0.80;;;;;;;7.01;100.00;99619.94;4987570;28;20022;-68
2024/01/07 01:08:53;;;;;;;0.90;0.90;;;;;;;7.12;100.00;99632.88;4975515;28;20078;-69
2024/01/07 01:11:19;;;;;;;0.80;0.80;;;;;;;7.06;100.00;99643.59;5004221;28;20083;-70
2024/01/07 01:13:44;;;;;;;0.88;0.88;;;;;;;7.03;100.00;99652.50;5008119;28;20537;-69
2024/01/07 01:16:10;;;;;;;0.77;0.77;;;;;;;6.97;100.00;99649.13;5009149;28;20041;-69
2024/01/07 01:18:35;;;;;;;0.85;0.85;;;;;;;7.00;100.00;99652.53;4988128;28;20041;-69
2024/01/07 01:21:00;;;;;;;0.70;0.70;;;;;;;7.03;100.00;99654.25;4978658;28;20797;-68
2024/01/07 01:23:26;;;;;;;0.90;0.90;;;;;;;7.05;100.00;99655.09;5005025;28;20034;-69
2024/01/07 01:25:51;;;;;;;0.93;0.93;;;;;;;7.06;100.00;99649.78;4977472;28;20100;-70
2024/01/07 01:28:17;;;;;;;0.90;0.90;;;;;;;7.07;100.00;99654.16;4969267;28;20057;-69
2024/01/07 01:30:42;;;;;;;0.75;0.75;;;;;;;6.64;100.00;99593.50;4985701;28;20502;-70
2024/01/07 01:33:07;;;;;;;0.90;0.90;;;;;;;6.97;100.00;99659.72;4987603;28;20037;-69
2024/01/07 01:35:33;;;;;;;0.80;0.80;;;;;;;6.94;100.00;99665.03;4984372;28;20401;-69
2024/01/07 01:37:58;;;;;;;0.90;0.90;;;;;;;6.88;100.00;99660.78;4968173;28;20562;-69
2024/01/07 01:40:24;;;;;;;0.70;0.70;;;;;;;6.69;100.00;99628.63;4968067;28;20023;-70
2024/01/07 01:42:49;;;;;;;0.90;0.90;;;;;;;6.90;100.00;99664.28;4969373;28;20071;-70
2024/01/07 01:45:15;;;;;;;0.80;0.80;;;;;;;6.91;100.00;99663.34;4988519;28;20386;-69
2024/01/07 01:47:41;;;;;;;0.85;0.85;;;;;;;6.82;100.00;99663.56;4987942;28;20026;-67
2024/01/07 01:50:07;;;;;;;0.88;0.88;;;;;;;6.85;100.00;99665.28;4988609;28;20034;-69
2024/01/07 01:52:34;;;;;;;0.90;0.90;;;;;;;6.93;100.00;99668.59;4981292;28;20030;-69
2024/01/07 01:55:00;;;;;;;0.90;0.90;;;;;;;6.90;100.00;99668.69;4973810;28;20585;-69
2024/01/07 01:57:32;;;;;;;0.80;0.80;;;;;;;6.89;100.00;99673.09;4969038;28;20058;-69
2024/01/07 02:00:02;;;;;;;0.80;0.80;;;;;;;6.77;100.00;99652.22;4969482;28;20490;-71
2024/01/07 02:02:43;;;;;;;0.85;0.85;;;;;;;6.77;100.00;99669.88;4925459;29;20044;-69
2024/01/07 02:05:08;;;;;;;0.65;0.65;;;;;;;6.72;100.00;99678.75;4928557;29;20063;-70
2024/01/07 02:07:34;;;;;;;0.90;0.90;;;;;;;6.49;100.00;99636.13;4918357;29;20044;-70
2024/01/07 02:09:59;;;;;;;0.90;0.90;;;;;;;6.66;100.00;99678.91;4909426;29;20064;-70
2024/01/07 02:12:25;;;;;;;0.85;0.85;;;;;;;6.69;100.00;99675.31;4910008;29;20058;-70
2024/01/07 02:14:50;;;;;;;0.82;0.82;;;;;;;6.67;100.00;99682.44;4908797;29;20431;-70
2024/01/07 02:17:17;;;;;;;0.80;0.80;;;;;;;6.74;100.00;99683.16;4908907;29;20070;-70
2024/01/07 02:19:43;;;;;;;0.70;0.70;;;;;;;6.78;100.00;99683.06;4911282;29;20047;-69
2024/01/07 02:22:08;;;;;;;0.95;0.95;;;;;;;6.71;100.00;99686.72;4921560;29;20109;-69
2024/01/07 02:24:34;;;;;;;0.80;0.80;;;;;;;6.17;100.00;99611.31;4924858;29;20035;-69
2024/01/07 02:27:02;;;;;;;0.77;0.77;;;;;;;6.46;100.00;99664.38;4920893;29;20044;-69
2024/01/07 02:29:28;;;;;;;0.80;0.80;;;;;;;6.59;100.00;99690.50;4907384;29;20051;-69
2024/01/07 02:31:53;;;;;;;0.73;0.73;;;;;;;6.57;100.00;99687.03;4907858;29;20035;-70
2024/01/07 02:34:19;;;;;;;0.80;0.80;;;;;;;6.57;100.00;99686.19;4921887;29;20044;-63
2024/01/07 02:36:44;;;;;;;0.73;0.73;;;;;;;6.58;100.00;99679.97;4926574;29;20106;-63
2024/01/07 02:39:09;;;;;;;0.80;0.80;;;;;;;6.58;100.00;99679.97;4931709;28;20476;-64
2024/01/07 02:41:35;;;;;;;0.90;0.90;;;;;;;6.66;100.00;99685.97;4986732;28;20023;-63
2024/01/07 02:44:00;;;;;;;0.60;0.60;;;;;;;6.68;100.00;99684.16;4953447;28;20421;-63
2024/01/07 02:46:25;;;;;;;0.77;0.77;;;;;;;6.66;100.00;99675.38;4968361;28;20113;-63
2024/01/07 02:48:51;;;;;;;0.60;0.60;;;;;;;6.75;100.00;99683.13;4978143;28;20085;-63
2024/01/07 02:51:16;;;;;;;1.00;1.00;;;;;;;6.76;100.00;99684.84;4988562;28;20026;-64
2024/01/07 02:53:42;;;;;;;0.90;0.90;;;;;;;6.77;100.00;99681.28;4988510;28;20041;-64
2024/01/07 02:56:08;;;;;;;0.82;0.82;;;;;;;6.79;100.00;99681.28;4980532;28;20051;-63
2024/01/07 02:58:34;;;;;;;0.90;0.90;;;;;;;6.77;100.00;99675.16;4969897;28;20780;-63
2024/01/07 03:01:00;;;;;;;0.80;0.80;;;;;;;6.81;100.00;99685.63;5005489;28;20109;-63
2024/01/07 03:03:25;;;;;;;0.82;0.82;;;;;;;6.80;100.00;99681.25;4982184;28;20105;-64
2024/01/07 03:05:51;;;;;;;0.80;0.80;;;;;;;6.82;100.00;99682.06;4971235;28;20045;-63
2024/01/07 03:08:16;;;;;;;0.90;0.90;;;;;;;6.83;100.00;99686.47;4975485;28;20030;-64
2024/01/07 03:10:42;;;;;;;0.80;0.80;;;;;;;6.82;100.00;99687.34;4991868;28;20486;-63
2024/01/07 03:13:07;;;;;;;0.70;0.70;;;;;;;6.83;100.00;99686.47;4970079;28;20066;-63
2024/01/07 03:15:32;;;;;;;0.80;0.80;;;;;;;6.81;100.00;99682.97;4990428;28;20022;-64
2024/01/07 03:17:58;;;;;;;0.90;0.90;;;;;;;6.80;100.00;99685.66;4990173;28;20034;-63
2024/01/07 03:20:23;;;;;;;1.00;1.00;;;;;;;6.84;100.00;99693.47;4990256;28;20132;-64
2024/01/07 03:22:49;;;;;;;0.90;0.90;;;;;;;6.86;100.00;99688.16;4991034;28;20535;-63
2024/01/07 03:25:14;;;;;;;0.90;0.90;;;;;;;6.86;100.00;99686.38;4999408;28;20026;-64
2024/01/07 03:27:39;;;;;;;0.80;0.80;;;;;;;6.87;100.00;99688.09;4974566;28;20025;-64
2024/01/07 03:30:06;;;;;;;0.80;0.80;;;;;;;6.88;100.00;99689.00;4987964;28;20034;-64
2024/01/07 03:32:31;;;;;;;0.90;0.90;;;;;;;6.89;100.00;99688.06;4972496;28;20038;-63
2024/01/07 03:34:56;;;;;;;0.80;0.80;;;;;;;6.90;100.00;99696.00;4982336;28;20022;-63
2024/01/07 03:37:22;;;;;;;0.75;0.75;;;;;;;6.92;100.00;99691.50;4972491;28;20026;-63
2024/01/07 03:39:47;;;;;;;0.70;0.70;;;;;;;6.46;100.00;99615.06;4972121;28;20058;-64
2024/01/07 03:42:13;;;;;;;0.80;0.80;;;;;;;6.92;100.00;99688.03;4971642;28;20030;-65
2024/01/07 03:44:39;;;;;;;0.80;0.80;;;;;;;6.77;100.00;99664.59;4980545;28;20058;-64
2024/01/07 03:47:05;;;;;;;0.80;0.80;;;;;;;7.00;100.00;99694.84;4989448;28;20068;-64
2024/01/07 03:49:31;;;;;;;0.88;0.88;;;;;;;6.98;100.00;99694.03;4987046;28;20386;-64
2024/01/07 03:51:56;;;;;;;0.70;0.70;;;;;;;6.94;100.00;99695.00;4989001;28;20470;-64
2024/01/07 03:54:21;;;;;;;0.88;0.88;;;;;;;6.94;100.00;99699.41;4992057;28;20041;-64
2024/01/07 03:56:47;;;;;;;0.75;0.75;;;;;;;6.93;100.00;99701.22;4983454;28;20038;-64
2024/01/07 03:59:12;;;;;;;0.90;0.90;;;;;;;6.98;100.00;99699.31;4985282;28;20125;-65
2024/01/07 04:01:38;;;;;;;0.80;0.80;;;;;;;7.01;100.00;99691.31;4953553;28;20112;-65
2024/01/07 04:04:03;;;;;;;0.80;0.80;;;;;;;7.04;100.00;99700.94;4973394;28;20041;-64
2024/01/07 04:06:29;;;;;;;0.80;0.80;;;;;;;7.02;100.00;99700.97;4952480;28;20419;-64
2024/01/07 04:08:54;;;;;;;0.90;0.90;;;;;;;7.06;100.00;99704.44;4971576;28;20023;-64
2024/01/07 04:11:20;;;;;;;0.80;0.80;;;;;;;7.00;100.00;99702.78;4986161;28;20018;-64
2024/01/07 04:13:45;;;;;;;0.90;0.90;;;;;;;6.74;100.00;99665.50;4972318;28;20027;-65
2024/01/07 04:16:20;;;;;;;1.00;1.00;;;;;;;7.01;100.00;99709.81;4989391;28;20295;-65
2024/01/07 04:18:47;;;;;;;0.80;0.80;;;;;;;6.95;100.00;99715.28;4986906;28;20026;-64
2024/01/07 04:21:12;;;;;;;0.70;0.70;;;;;;;6.97;100.00;99716.06;4969965;28;20173;-64
2024/01/07 04:23:40;;;;;;;0.90;0.90;;;;;;;6.95;100.00;99715.28;4969394;28;20509;-65
2024/01/07 04:26:06;;;;;;;1.00;1.00;;;;;;;6.92;100.00;99717.97;4987094;28;20018;-64
2024/01/07 04:28:31;;;;;;;0.90;0.90;;;;;;;6.94;100.00;99723.19;4990256;28;20026;-64
2024/01/07 04:30:57;;;;;;;0.80;0.80;;;;;;;6.98;100.00;99725.78;4998927;28;20030;-64
2024/01/07 04:33:22;;;;;;;0.90;0.90;;;;;;;6.91;100.00;99724.16;4990301;28;20430;-64
2024/01/07 04:35:47;;;;;;;0.90;0.90;;;;;;;6.86;100.00;99720.75;4972419;28;20022;-64
2024/01/07 04:38:14;;;;;;;0.80;0.80;;;;;;;6.85;100.00;99724.31;4990142;28;20484;-64
2024/01/07 04:40:39;;;;;;;0.77;0.77;;;;;;;6.86;100.00;99725.16;4986356;28;20030;-64
2024/01/07 04:43:04;;;;;;;0.80;0.80;;;;;;;6.64;100.00;99682.47;4990086;28;20026;-64
2024/01/07 04:45:30;;;;;;;0.90;0.90;;;;;;;6.91;100.00;99715.34;4986736;28;20490;-64
2024/01/07 04:47:55;;;;;;;0.80;0.80;;;;;;;6.90;100.00;99722.44;4987527;28;20054;-64
2024/01/07 04:50:21;;;;;;;0.70;0.70;;;;;;;6.91;100.00;99718.00;4988091;28;20030;-64
2024/01/07 04:52:46;;;;;;;0.80;0.80;;;;;;;6.79;100.00;99713.84;4989623;28;20064;-64
2024/01/07 04:55:12;;;;;;;0.80;0.80;;;;;;;6.77;100.00;99720.09;4983552;28;20026;-69
2024/01/07 04:57:37;;;;;;;0.80;0.80;;;;;;;6.35;100.00;99663.75;4986744;28;20054;-70
2024/01/07 05:00:05;;;;;;;0.80;0.80;;;;;;;6.76;100.00;99724.50;4951297;28;20065;-69
2024/01/07 05:02:30;;;;;;;0.90;0.90;;;;;;;6.78;100.00;99727.97;4969088;28;20161;-71
2024/01/07 05:04:55;;;;;;;0.90;0.90;;;;;;;6.83;100.00;99723.47;4983942;28;20505;-70
2024/01/07 05:07:21;;;;;;;1.00;1.00;;;;;;;6.75;100.00;99729.81;4988433;28;20084;-70
2024/01/07 05:09:46;;;;;;;0.80;0.80;;;;;;;6.76;100.00;99737.72;4968461;28;20053;-70
2024/01/07 05:12:12;;;;;;;0.70;0.70;;;;;;;6.80;100.00;99733.22;4988161;28;20600;-69
2024/01/07 05:14:37;;;;;;;0.90;0.90;;;;;;;6.77;100.00;99731.50;4987962;28;20038;-71
2024/01/07 05:17:03;;;;;;;0.90;0.90;;;;;;;6.79;100.00;99739.44;4987734;28;20064;-70
2024/01/07 05:19:29;;;;;;;0.80;0.80;;;;;;;6.35;100.00;99669.03;4981903;28;20490;-70
2024/01/07 05:21:54;;;;;;;0.90;0.90;;;;;;;6.72;100.00;99743.97;4984230;28;20040;-72
2024/01/07 05:24:20;;;;;;;0.90;0.90;;;;;;;6.74;100.00;99752.72;4986045;28;20026;-71
2024/01/07 05:26:45;;;;;;;0.82;0.82;;;;;;;6.76;100.00;99743.00;4985563;28;20026;-72
2024/01/07 05:29:11;;;;;;;0.80;0.80;;;;;;;6.79;100.00;99750.84;4975229;28;20018;-73
2024/01/07 05:31:40;;;;;;;0.80;0.80;;;;;;;6.84;100.00;99750.78;4983210;28;20203;-72
2024/01/07 05:34:06;;;;;;;1.00;1.00;;;;;;;6.44;100.00;99674.13;5008059;28;20030;-72
2024/01/07 05:36:31;;;;;;;0.90;0.90;;;;;;;6.85;100.00;99758.69;5008911;28;20033;-72
2024/01/07 05:38:57;;;;;;;1.00;1.00;;;;;;;6.89;100.00;99752.41;5008811;28;20030;-73
2024/01/07 05:41:22;;;;;;;0.90;0.90;;;;;;;6.64;100.00;99714.19;4977555;28;20023;-73
2024/01/07 05:43:48;;;;;;;0.90;0.90;;;;;;;6.93;100.00;99771.72;4983941;28;20374;-72
2024/01/07 05:46:13;;;;;;;0.80;0.80;;;;;;;6.34;100.00;99706.94;4981538;28;20066;-74
2024/01/07 05:48:46;;;;;;;0.90;0.90;;;;;;;6.74;100.00;99773.88;4970448;28;20037;-72
2024/01/07 05:51:12;;;;;;;0.93;0.93;;;;;;;6.71;100.00;99771.28;4987654;28;20050;-71
2024/01/07 05:53:38;;;;;;;0.80;0.80;;;;;;;6.73;100.00;99772.13;4983939;28;20117;-70
2024/01/07 05:56:04;;;;;;;0.80;0.80;;;;;;;6.74;100.00;99784.44;4973818;28;20074;-71
2024/01/07 05:58:30;;;;;;;0.75;0.75;;;;;;;6.73;100.00;99782.72;4970539;28;20038;-70
2024/01/07 06:00:55;;;;;;;0.82;0.82;;;;;;;6.70;100.00;99786.28;4972189;28;20038;-70
2024/01/07 06:03:21;;;;;;;0.68;0.68;;;;;;;6.65;100.00;99779.38;4987670;28;20046;-71
2024/01/07 06:05:46;;;;;;;0.80;0.80;;;;;;;6.62;100.00;99784.72;4987162;28;20018;-67
2024/01/07 06:08:12;;;;;;;0.90;0.90;;;;;;;6.59;100.00;99779.47;4986308;28;20026;-70
2024/01/07 06:10:38;;;;;;;0.75;0.75;;;;;;;6.56;100.00;99782.19;4982822;28;20030;-70
2024/01/07 06:13:04;;;;;;;0.93;0.93;;;;;;;6.56;100.00;99787.47;4987304;28;20477;-70
2024/01/07 06:15:30;;;;;;;0.90;0.90;;;;;;;6.57;100.00;99792.72;4985244;28;20034;-69
2024/01/07 06:17:55;;;;;;;0.93;0.93;;;;;;;6.61;100.00;99785.59;4969235;28;20058;-71
2024/01/07 06:20:21;;;;;;;0.80;0.80;;;;;;;6.63;100.00;99789.09;4968022;28;20109;-69
2024/01/07 06:22:46;;;;;;;0.82;0.82;;;;;;;6.64;100.00;99785.53;4968672;28;20142;-70
2024/01/07 06:25:12;;;;;;;0.93;0.93;;;;;;;6.59;100.00;99785.63;4972372;28;20479;-70
2024/01/07 06:27:41;;;;;;;1.00;1.00;;;;;;;6.62;100.00;99804.06;4982555;28;20034;-71
2024/01/07 06:30:07;;;;;;;0.90;0.90;;;;;;;6.64;100.00;99801.38;5005260;28;20081;-70
2024/01/07 06:32:33;;;;;;;0.80;0.80;;;;;;;6.72;100.00;99801.25;5009877;28;20026;-71
2024/01/07 06:34:59;;;;;;;0.80;0.80;;;;;;;6.72;100.00;99801.25;5011864;28;20036;-70
2024/01/07 06:37:25;;;;;;;0.85;0.85;;;;;;;6.67;100.00;99809.28;4989174;28;20030;-70
2024/01/07 06:39:50;;;;;;;0.80;0.80;;;;;;;6.70;100.00;99803.94;4992005;28;20036;-70
2024/01/07 06:42:16;;;;;;;0.88;0.88;;;;;;;6.70;100.00;99803.94;4992004;28;20034;-70
2024/01/07 06:44:41;;;;;;;0.68;0.68;;;;;;;6.66;100.00;99810.16;4988004;28;20034;-71
2024/01/07 06:47:07;;;;;;;0.90;0.90;;;;;;;6.66;100.00;99818.09;4971877;28;20038;-70
2024/01/07 06:49:33;;;;;;;0.90;0.90;;;;;;;6.65;100.00;99821.66;4971625;28;20045;-71
2024/01/07 06:51:58;;;;;;;0.80;0.80;;;;;;;6.71;100.00;99826.78;4971479;28;20042;-70
2024/01/07 06:54:25;;;;;;;0.82;0.82;;;;;;;6.65;100.00;99826.94;4973030;28;20031;-71
2024/01/07 06:56:51;;;;;;;0.90;0.90;;;;;;;6.68;100.00;99826.88;4970783;28;20058;-71
2024/01/07 06:59:16;;;;;;;0.70;0.70;;;;;;;6.71;100.00;99832.09;4979708;28;20756;-71
2024/01/07 07:01:41;;;;;;;0.90;0.90;;;;;;;6.72;100.00;99833.84;5005978;28;20052;-71
2024/01/07 07:04:07;;;;;;;0.82;0.82;;;;;;;6.75;100.00;99840.81;5010439;28;20061;-69
2024/01/07 07:06:32;;;;;;;0.90;0.90;;;;;;;6.72;100.00;99838.25;5009843;28;20034;-71
2024/01/07 07:08:58;;;;;;;0.85;0.85;;;;;;;6.66;100.00;99841.88;4984993;28;20032;-70
2024/01/07 07:11:23;;;;;;;0.90;0.90;;;;;;;6.63;100.00;99841.94;4993288;28;20049;-70
2024/01/07 07:13:48;;;;;;;0.85;0.85;;;;;;;6.63;100.00;99845.47;5009822;28;20030;-68
2024/01/07 07:16:14;;;;;;;0.95;0.95;;;;;;;6.67;100.00;99851.56;4992311;28;20087;-65
2024/01/07 07:18:39;;;;;;;0.90;0.90;;;;;;;6.62;100.00;99848.13;4986044;28;20391;-64
2024/01/07 07:21:05;;;;;;;0.90;0.90;;;;;;;6.54;100.00;99852.66;4991808;28;20026;-64
2024/01/07 07:23:30;;;;;;;0.90;0.90;;;;;;;6.55;100.00;99852.66;4999893;28;20022;-65
2024/01/07 07:25:56;;;;;;;0.95;0.95;;;;;;;6.60;100.00;99858.75;4991541;28;20109;-64
2024/01/07 07:28:21;;;;;;;0.80;0.80;;;;;;;6.58;100.00;99857.00;4973895;28;20034;-64
2024/01/07 07:30:47;;;;;;;0.90;0.90;;;;;;;6.52;100.00;99857.97;4994017;28;20034;-64
2024/01/07 07:33:13;;;;;;;0.90;0.90;;;;;;;6.60;100.00;99860.50;4990812;28;20031;-64
2024/01/07 07:35:40;;;;;;;0.90;0.90;;;;;;;6.57;100.00;99865.84;4991116;28;20203;-64
2024/01/07 07:38:06;;;;;;;1.00;1.00;;;;;;;6.60;100.00;99871.06;4990895;28;20030;-64
2024/01/07 07:40:32;;;;;;;0.70;0.70;;;;;;;6.57;100.00;99868.50;4985672;28;20038;-64
2024/01/07 07:42:57;;;;;;;0.80;0.80;;;;;;;6.49;100.00;99871.25;4972021;28;20050;-64
2024/01/07 07:45:23;;;;;;;0.90;0.90;;;;;;;6.46;100.00;99862.50;4972011;28;20434;-64
2024/01/07 07:47:48;;;;;;;0.80;0.80;;;;;;;6.41;100.00;99859.97;4973705;28;20061;-64
2024/01/07 07:50:14;;;;;;;1.00;1.00;;;;;;;6.54;100.00;99873.81;4971312;28;20039;-64
2024/01/07 07:52:43;;;;;;;0.90;0.90;;;;;;;6.37;100.00;99841.56;4971345;28;20041;-64
2024/01/07 07:55:09;;;;;;;1.00;1.00;;;;;;;6.46;100.00;99866.03;4981480;28;20504;-64
2024/01/07 07:57:35;;;;;;;0.90;0.90;;;;;;;6.52;100.00;99880.91;4938372;28;20086;-64
2024/01/07 08:00:00;;;;;;;0.85;0.85;;;;;;;6.53;100.00;99875.59;4950718;29;20447;-64
2024/01/07 08:02:26;;;;;;;0.88;0.88;;;;;;;6.57;100.00;99885.19;4933898;29;20035;-65
2024/01/07 08:04:51;;;;;;;0.80;0.80;;;;;;;6.54;100.00;99881.72;4931224;29;20134;-64
2024/01/07 08:07:17;;;;;;;0.80;0.80;;;;;;;6.52;100.00;99881.75;4916375;29;20028;-65
2024/01/07 08:09:43;;;;;;;0.80;0.80;;;;;;;6.54;100.00;99884.38;4931961;29;20064;-64
2024/01/07 08:12:08;;;;;;;0.90;0.90;;;;;;;6.61;100.00;99884.25;4933533;29;20096;-65
2024/01/07 08:14:34;;;;;;;0.88;0.88;;;;;;;6.63;100.00;99884.22;4931515;29;20400;-65
2024/01/07 08:16:59;;;;;;;0.75;0.75;;;;;;;6.64;100.00;99880.66;4931944;29;20031;-64
2024/01/07 08:19:25;;;;;;;0.90;0.90;;;;;;;6.63;100.00;99889.50;4933348;29;20436;-64
2024/01/07 08:21:50;;;;;;;0.90;0.90;;;;;;;6.59;100.00;99896.63;4931453;29;20059;-65
2024/01/07 08:24:16;;;;;;;0.88;0.88;;;;;;;6.65;100.00;99895.63;4952515;28;20027;-71
2024/01/07 08:26:41;;;;;;;0.90;0.90;;;;;;;6.61;100.00;99897.47;4950948;29;20381;-71
2024/01/07 08:29:07;;;;;;;0.80;0.80;;;;;;;6.65;100.00;99895.63;4934294;29;20043;-70
2024/01/07 08:31:32;;;;;;;0.90;0.90;;;;;;;6.63;100.00;99900.06;4940851;29;20022;-71
2024/01/07 08:33:58;;;;;;;0.90;0.90;;;;;;;6.68;100.00;99900.88;4934022;29;20031;-71
2024/01/07 08:36:23;;;;;;;0.77;0.77;;;;;;;6.71;100.00;99908.72;4943720;29;20039;-71
2024/01/07 08:38:49;;;;;;;0.90;0.90;;;;;;;6.68;100.00;99906.16;4932814;29;20563;-72
2024/01/07 08:41:18;;;;;;;0.80;0.80;;;;;;;6.72;100.00;99906.06;4923465;29;20082;-71
2024/01/07 08:43:47;;;;;;;0.90;0.90;;;;;;;6.70;100.00;99914.94;4949313;29;20027;-71
2024/01/07 08:46:13;;;;;;;0.90;0.90;;;;;;;6.43;100.00;99873.16;4950346;29;20027;-71
2024/01/07 08:48:39;;;;;;;0.80;0.80;;;;;;;6.70;100.00;99917.56;4941300;29;20023;-71
2024/01/07 08:51:05;;;;;;;0.90;0.90;;;;;;;6.70;100.00;99910.50;4947028;28;20038;-71
2024/01/07 08:53:31;;;;;;;0.82;0.82;;;;;;;6.71;100.00;99921.94;4960725;28;20041;-71
2024/01/07 08:55:56;;;;;;;0.90;0.90;;;;;;;6.68;100.00;99927.28;4952676;28;20096;-71
2024/01/07 08:58:22;;;;;;;0.90;0.90;;;;;;;6.63;100.00;99916.81;4932162;29;20122;-70
2024/01/07 09:00:47;;;;;;;0.82;0.82;;;;;;;6.51;100.00;99898.53;4947400;28;20039;-69
2024/01/07 09:03:13;;;;;;;0.90;0.90;;;;;;;6.72;100.00;99922.81;4949437;29;20034;-70
2024/01/07 09:05:38;;;;;;;1.00;1.00;;;;;;;6.72;100.00;99922.81;4945245;29;20027;-70
2024/01/07 09:08:05;;;;;;;0.90;0.90;;;;;;;6.76;100.00;99930.66;4949255;29;20042;-70
2024/01/07 09:10:31;;;;;;;0.80;0.80;;;;;;;6.70;100.00;99928.13;4947557;29;20023;-70
2024/01/07 09:12:56;;;;;;;0.95;0.95;;;;;;;6.78;100.00;99936.78;4932779;29;20027;-70
2024/01/07 09:15:21;;;;;;;0.90;0.90;;;;;;;6.83;100.00;99942.88;4941562;28;20027;-72
2024/01/07 09:17:47;;;;;;;0.80;0.80;;;;;;;6.85;100.00;99941.06;4954161;28;20074;-71
2024/01/07 09:20:13;;;;;;;0.80;0.80;;;;;;;6.67;100.00;99899.97;4946158;28;20023;-72
2024/01/07 09:22:38;;;;;;;0.80;0.80;;;;;;;6.86;100.00;99948.09;4931635;29;20023;-71
2024/01/07 09:25:05;;;;;;;0.82;0.82;;;;;;;6.84;100.00;99944.59;4936661;29;20026;-71
2024/01/07 09:27:31;;;;;;;0.80;0.80;;;;;;;6.84;100.00;99949.88;4949962;29;20031;-71
2024/01/07 09:29:56;;;;;;;0.80;0.80;;;;;;;6.82;100.00;99953.47;4950682;29;20027;-71
2024/01/07 09:32:22;;;;;;;0.75;0.75;;;;;;;6.84;100.00;99960.47;4934132;29;20031;-71
2024/01/07 09:34:47;;;;;;;0.80;0.80;;;;;;;6.91;100.00;99956.81;4950912;28;20039;-68
2024/01/07 09:37:13;;;;;;;0.80;0.80;;;;;;;6.91;100.00;99959.44;4948447;28;20041;-71
2024/01/07 09:39:40;;;;;;;0.88;0.88;;;;;;;6.95;100.00;99958.50;4950423;29;20030;-70
2024/01/07 09:42:15;;;;;;;0.80;0.80;;;;;;;6.97;100.00;99955.84;4946064;29;20065;-70
2024/01/07 09:44:44;;;;;;;0.80;0.80;;;;;;;6.97;100.00;99967.25;4949914;29;20035;-70
2024/01/07 09:47:14;;;;;;;1.00;1.00;;;;;;;6.99;100.00;99975.16;4942832;29;20114;-70
2024/01/07 09:49:40;;;;;;;0.90;0.90;;;;;;;6.80;100.00;99949.97;4931042;29;20094;-72
2024/01/07 09:52:08;;;;;;;0.90;0.90;;;;;;;6.98;100.00;99976.97;4912583;29;20043;-71
2024/01/07 09:54:37;;;;;;;0.75;0.75;;;;;;;6.92;100.00;99974.41;4938637;29;20027;-71
2024/01/07 09:57:06;;;;;;;0.90;0.90;;;;;;;6.83;100.00;99971.06;4935526;29;20075;-76
2024/01/07 09:59:32;;;;;;;0.90;0.90;;;;;;;6.77;100.00;99973.84;4928539;29;20023;-75
2024/01/07 10:01:57;;;;;;;0.90;0.90;;;;;;;6.77;100.00;99968.53;4928187;29;20411;-74
2024/01/07 10:04:24;;;;;;;0.90;0.90;;;;;;;6.79;100.00;99972.03;4927884;29;20032;-79
2024/01/07 10:06:49;;;;;;;0.90;0.90;;;;;;;6.78;100.00;99971.16;4943953;29;20098;-74
2024/01/07 10:09:15;;;;;;;0.90;0.90;;;;;;;6.83;100.00;99973.72;4948979;29;20062;-76
2024/01/07 10:11:41;;;;;;;0.80;0.80;;;;;;;6.84;100.00;99981.59;4932103;29;20784;-76
2024/01/07 10:14:06;;;;;;;0.80;0.80;;;;;;;6.80;100.00;99977.28;4947574;29;20480;-76
2024/01/07 10:16:33;;;;;;;0.90;0.90;;;;;;;6.80;100.00;99972.00;4936651;29;20027;-76
2024/01/07 10:18:58;;;;;;;0.70;0.70;;;;;;;6.61;100.00;99942.38;4948960;29;20027;-76
2024/01/07 10:21:24;;;;;;;0.90;0.90;;;;;;;6.84;100.00;99981.59;4962035;28;20038;-78
2024/01/07 10:23:50;;;;;;;0.90;0.90;;;;;;;6.82;100.00;99977.25;4969700;28;20714;-78
2024/01/07 10:26:15;;;;;;;0.80;0.80;;;;;;;6.83;100.00;99979.00;4943801;28;20039;-76
2024/01/07 10:28:41;;;;;;;0.80;0.80;;;;;;;6.82;100.00;99986.03;4930210;29;20039;-74
2024/01/07 10:31:06;;;;;;;0.70;0.70;;;;;;;6.81;100.00;99981.66;4942372;28;20026;-78
2024/01/07 10:33:33;;;;;;;0.70;0.70;;;;;;;6.80;100.00;99981.69;4968494;28;20030;-76
2024/01/07 10:36:05;;;;;;;0.88;0.88;;;;;;;6.80;100.00;99979.94;4968768;28;20038;-79
2024/01/07 10:38:33;;;;;;;0.77;0.77;;;;;;;6.84;100.00;99975.47;4946083;28;20039;-76
2024/01/07 10:41:00;;;;;;;0.80;0.80;;;;;;;6.84;100.00;99981.59;4943729;29;20078;-79
2024/01/07 10:43:29;;;;;;;0.73;0.73;;;;;;;6.77;100.00;99976.47;4948800;29;20110;-77
2024/01/07 10:45:55;;;;;;;0.80;0.80;;;;;;;6.84;100.00;99981.59;4949227;29;20035;-65
2024/01/07 10:48:21;;;;;;;0.85;0.85;;;;;;;6.78;100.00;99981.72;4944725;29;20059;-66
2024/01/07 10:50:50;;;;;;;0.80;0.80;;;;;;;6.28;100.00;99910.38;4947318;29;20058;-66
2024/01/07 10:53:20;;;;;;;0.90;0.90;;;;;;;6.68;100.00;99981.03;4948098;29;20051;-65
2024/01/07 10:56:07;;;;;;;0.80;0.80;;;;;;;6.68;100.00;99980.16;4948583;28;20027;-66
2024/01/07 10:58:35;;;;;;;0.90;0.90;;;;;;;6.67;100.00;99978.41;4990863;28;20029;-65
2024/01/07 11:01:03;;;;;;;0.80;0.80;;;;;;;6.65;100.00;99977.56;4998236;28;20332;-65
2024/01/07 11:03:48;;;;;;;0.90;0.90;;;;;;;6.60;100.00;99960.91;4988075;28;20026;-66
2024/01/07 11:06:38;;;;;;;0.88;0.88;;;;;;;6.67;100.00;99979.25;4960622;28;20031;-66
2024/01/07 11:09:19;;;;;;;0.80;0.80;;;;;;;6.67;100.00;99983.69;4969079;28;20026;-65
2024/01/07 11:11:45;;;;;;;0.80;0.80;;;;;;;6.68;100.00;99975.75;4985787;28;20138;-66
2024/01/07 11:14:45;;;;;;;0.82;0.82;;;;;;;6.65;100.00;99982.84;5007562;28;20121;-66
2024/01/07 11:17:13;;;;;;;0.75;0.75;;;;;;;6.67;100.00;99978.41;4998559;28;20466;-65
2024/01/07 11:19:49;;;;;;;1.05;1.05;;;;;;;6.74;100.00;99977.38;4993249;28;20030;-65
2024/01/07 11:22:22;;;;;;;0.90;0.90;;;;;;;6.72;100.00;99982.69;4973829;28;20650;-65
2024/01/07 11:24:47;;;;;;;0.90;0.90;;;;;;;6.68;100.00;99983.66;4985831;28;20759;-66
2024/01/07 11:27:12;;;;;;;0.80;0.80;;;;;;;6.47;100.00;99954.94;4988464;28;20040;-66
2024/01/07 11:29:38;;;;;;;0.80;0.80;;;;;;;6.69;100.00;99981.88;4987127;28;20034;-67